地図

経路データ

SID SEASON NUMBER BASIN SUBBASIN NAME ISO_TIME NATURE LAT LON WMO_WIND WMO_PRES WMO_AGENCY TRACK_TYPE DIST2LAND LANDFALL IFLAG USA_AGENCY USA_ATCF_ID USA_LAT USA_LON USA_RECORD USA_STATUS USA_WIND USA_PRES USA_SSHS USA_R34_NE USA_R34_SE USA_R34_SW USA_R34_NW USA_R50_NE USA_R50_SE USA_R50_SW USA_R50_NW USA_R64_NE USA_R64_SE USA_R64_SW USA_R64_NW USA_POCI USA_ROCI USA_RMW USA_EYE TOKYO_LAT TOKYO_LON TOKYO_GRADE TOKYO_WIND TOKYO_PRES TOKYO_R50_DIR TOKYO_R50_LONG TOKYO_R50_SHORT TOKYO_R30_DIR TOKYO_R30_LONG TOKYO_R30_SHORT TOKYO_LAND CMA_LAT CMA_LON CMA_CAT CMA_WIND CMA_PRES HKO_LAT HKO_LON HKO_CAT HKO_WIND HKO_PRES NEWDELHI_LAT NEWDELHI_LON NEWDELHI_GRADE NEWDELHI_WIND NEWDELHI_PRES NEWDELHI_CI NEWDELHI_DP NEWDELHI_POCI REUNION_LAT REUNION_LON REUNION_TYPE REUNION_WIND REUNION_PRES REUNION_TNUM REUNION_CI REUNION_RMW REUNION_R34_NE REUNION_R34_SE REUNION_R34_SW REUNION_R34_NW REUNION_R50_NE REUNION_R50_SE REUNION_R50_SW REUNION_R50_NW REUNION_R64_NE REUNION_R64_SE REUNION_R64_SW REUNION_R64_NW BOM_LAT BOM_LON BOM_TYPE BOM_WIND BOM_PRES BOM_TNUM BOM_CI BOM_RMW BOM_R34_NE BOM_R34_SE BOM_R34_SW BOM_R34_NW BOM_R50_NE BOM_R50_SE BOM_R50_SW BOM_R50_NW BOM_R64_NE BOM_R64_SE BOM_R64_SW BOM_R64_NW BOM_ROCI BOM_POCI BOM_EYE BOM_POS_METHOD BOM_PRES_METHOD NADI_LAT NADI_LON NADI_CAT NADI_WIND NADI_PRES WELLINGTON_LAT WELLINGTON_LON WELLINGTON_WIND WELLINGTON_PRES DS824_LAT DS824_LON DS824_STAGE DS824_WIND DS824_PRES TD9636_LAT TD9636_LON TD9636_STAGE TD9636_WIND TD9636_PRES TD9635_LAT TD9635_LON TD9635_WIND TD9635_PRES TD9635_ROCI NEUMANN_LAT NEUMANN_LON NEUMANN_CLASS NEUMANN_WIND NEUMANN_PRES MLC_LAT MLC_LON MLC_CLASS MLC_WIND MLC_PRES USA_GUST BOM_GUST BOM_GUST_PER REUNION_GUST REUNION_GUST_PER USA_SEAHGT USA_SEARAD_NE USA_SEARAD_SE USA_SEARAD_SW USA_SEARAD_NW STORM_SPEED STORM_DIR
1947196N20090 1947 45 NI BB NOT_NAMED 1947-07-14 18:00:00 TS 19.5000 90.1000 main 256 252 O________O____ jtwc_io IO071947 19.5000 90.1000 -1 19.5000 90.1000 TC 3 262
1947196N20090 1947 45 NI BB NOT_NAMED 1947-07-14 21:00:00 TS 19.4826 89.9600 main 252 245 P________P____ IO071947 19.4826 89.9600 -1 19.4826 89.9600 TC 3 270
1947196N20090 1947 45 NI BB NOT_NAMED 1947-07-15 00:00:00 TS 19.5000 89.8000 main 245 229 O________O____ jtwc_io IO071947 19.5000 89.8000 -1 19.5000 89.8000 TC 25 4 286
1947196N20090 1947 45 NI BB NOT_NAMED 1947-07-15 03:00:00 TS 19.5799 89.5955 main 229 213 P________PO___ IO071947 19.5774 89.5949 -1 19.5774 89.5949 TC 25 19.6000 89.6000 1 5 293
1947196N20090 1947 45 NI BB NOT_NAMED 1947-07-15 06:00:00 TS 19.7099 89.2792 main 213 201 O________OP___ jtwc_io IO071947 19.7000 89.3000 -1 19.7000 89.3000 TC 25 19.7493 89.1960 1 8 291
1947196N20090 1947 45 NI BB NOT_NAMED 1947-07-15 09:00:00 TS 19.8525 88.8428 main 190 165 P________PP___ IO071947 19.8352 88.8576 -1 19.8352 88.8576 TC 25 19.8985 88.8033 1 9 291
1947196N20090 1947 45 NI BB NOT_NAMED 1947-07-15 12:00:00 TS 20.0161 88.4113 main 165 127 O________OP___ jtwc_io IO071947 20.0000 88.4000 -1 20.0000 88.4000 TC 25 20.0484 88.4339 1 8 296
1947196N20090 1947 45 NI BB NOT_NAMED 1947-07-15 15:00:00 TS 20.1999 88.0800 main 127 89 P________PO___ IO071947 20.1998 88.0700 -1 20.1998 88.0700 TC 25 20.2000 88.1000 1 7 303
1947196N20090 1947 45 NI BB NOT_NAMED 1947-07-15 18:00:00 TS 20.3851 87.8032 main 89 66 O________OP___ jtwc_io IO071947 20.4000 87.8000 -1 20.4000 87.8000 TC 25 20.3552 87.8096 1 6 304
1947196N20090 1947 45 NI BB NOT_NAMED 1947-07-15 21:00:00 TS 20.5398 87.5414 main 56 31 P________PP___ IO071947 20.5500 87.5349 -1 20.5500 87.5349 TC 25 20.5195 87.5545 1 6 304
1947196N20090 1947 45 NI BB NOT_NAMED 1947-07-16 00:00:00 TS 20.6997 87.3074 main 31 10 O________OP___ jtwc_io IO071947 20.7000 87.3000 -1 20.7000 87.3000 TC 25 20.6991 87.3221 1 5 310
1947196N20090 1947 45 NI BB NOT_NAMED 1947-07-16 03:00:00 TS 20.8899 87.0999 main 15 10 P________PO___ IO071947 20.8849 87.0999 -1 20.8849 87.0999 TC 25 20.9000 87.1000 1 6 316
1947196N20090 1947 45 NI BB NOT_NAMED 1947-07-16 06:00:00 TS 21.1081 86.8852 main 10 0 O________OP___ jtwc_io IO071947 21.1000 86.9000 -1 21.1000 86.9000 TC 25 21.1243 86.8556 1 6 317
1947196N20090 1947 45 NI BB NOT_NAMED 1947-07-16 09:00:00 TS 21.3467 86.6400 main 0 0 P________PP___ IO071947 21.3350 86.6500 -1 21.3350 86.6500 TC 25 21.3700 86.6200 1 7 318
1947196N20090 1947 45 NI BB NOT_NAMED 1947-07-16 12:00:00 TS 21.6102 86.3998 main 0 0 O________OP___ jtwc_io IO071947 21.6000 86.4000 -1 21.6000 86.4000 TC 25 21.6306 86.3994 1 7 323
1947196N20090 1947 45 NI BB NOT_NAMED 1947-07-16 15:00:00 TS 21.9000 86.1900 main 0 0 P________PO___ IO071947 21.9000 86.1850 -1 21.9000 86.1850 TC 25 21.9000 86.2000 1 7 328
1947196N20090 1947 45 NI BB NOT_NAMED 1947-07-16 18:00:00 TS 22.1891 86.0104 main 0 0 O________OP___ jtwc_io IO071947 22.2000 86.0000 -1 22.2000 86.0000 TC 25 22.1728 86.0260 1 6 331
1947196N20090 1947 45 NI BB NOT_NAMED 1947-07-16 21:00:00 TS 22.4561 85.8555 main 0 0 P________PP___ IO071947 22.4625 85.8426 -1 22.4625 85.8426 TC 25 22.4475 85.8727 1 6 333
1947196N20090 1947 45 NI BB NOT_NAMED 1947-07-17 00:00:00 TS 22.7117 85.7165 main 0 0 O________OP___ jtwc_io IO071947 22.7000 85.7000 -1 22.7000 85.7000 TC 25 22.7235 85.7331 1 6 337
1947196N20090 1947 45 NI BB NOT_NAMED 1947-07-17 03:00:00 NR 23.0000 85.6000 main 0 __________O___ IO071947 -1 TC 23.0000 85.6000 1 6 340

IBTrACS Databaseについて

本データベースは、米国NOAAが公開する1842年以降の世界の熱帯低気圧のベストトラックデータアーカイブInternational Best Track Archive for Climate Stewardship (IBTrACS)を、ウェブで閲覧しやすい形式に変換したものです。

最終更新日:2021-11-26